sensor_id;sensor_type;location;lat;lon;timestamp;P1;durP1;ratioP1;P2;durP2;ratioP2
5622;SDS011;2833;50.432;10.706;2022-10-31T00:01:12;17.17;;;7.90;;
5622;SDS011;2833;50.432;10.706;2022-10-31T00:03:38;14.20;;;6.83;;
5622;SDS011;2833;50.432;10.706;2022-10-31T00:06:03;14.27;;;6.10;;
5622;SDS011;2833;50.432;10.706;2022-10-31T00:08:28;9.27;;;5.90;;
5622;SDS011;2833;50.432;10.706;2022-10-31T00:10:53;8.00;;;5.80;;
5622;SDS011;2833;50.432;10.706;2022-10-31T00:13:18;8.00;;;5.57;;
5622;SDS011;2833;50.432;10.706;2022-10-31T00:15:44;8.17;;;5.33;;
5622;SDS011;2833;50.432;10.706;2022-10-31T00:18:09;6.67;;;5.47;;
5622;SDS011;2833;50.432;10.706;2022-10-31T00:20:35;8.83;;;5.80;;
5622;SDS011;2833;50.432;10.706;2022-10-31T00:23:00;5.73;;;5.13;;
5622;SDS011;2833;50.432;10.706;2022-10-31T00:25:27;6.37;;;5.30;;
5622;SDS011;2833;50.432;10.706;2022-10-31T00:27:52;9.20;;;5.10;;
5622;SDS011;2833;50.432;10.706;2022-10-31T00:30:18;8.37;;;5.10;;
5622;SDS011;2833;50.432;10.706;2022-10-31T00:32:43;7.13;;;5.40;;
5622;SDS011;2833;50.432;10.706;2022-10-31T00:35:08;5.93;;;4.93;;
5622;SDS011;2833;50.432;10.706;2022-10-31T00:37:33;7.53;;;5.13;;
5622;SDS011;2833;50.432;10.706;2022-10-31T00:39:59;18.60;;;5.33;;
5622;SDS011;2833;50.432;10.706;2022-10-31T00:42:24;7.30;;;5.50;;
5622;SDS011;2833;50.432;10.706;2022-10-31T00:44:49;8.07;;;5.83;;
5622;SDS011;2833;50.432;10.706;2022-10-31T00:47:14;10.57;;;6.07;;
5622;SDS011;2833;50.432;10.706;2022-10-31T00:49:39;12.97;;;7.30;;
5622;SDS011;2833;50.432;10.706;2022-10-31T00:52:05;16.37;;;9.37;;
5622;SDS011;2833;50.432;10.706;2022-10-31T00:54:30;14.93;;;8.30;;
5622;SDS011;2833;50.432;10.706;2022-10-31T00:56:56;11.00;;;6.77;;
5622;SDS011;2833;50.432;10.706;2022-10-31T00:59:21;7.30;;;5.27;;
5622;SDS011;2833;50.432;10.706;2022-10-31T01:01:46;6.20;;;5.20;;
5622;SDS011;2833;50.432;10.706;2022-10-31T01:04:11;6.27;;;5.20;;
5622;SDS011;2833;50.432;10.706;2022-10-31T01:06:36;6.33;;;5.00;;
5622;SDS011;2833;50.432;10.706;2022-10-31T01:09:02;6.73;;;5.77;;
5622;SDS011;2833;50.432;10.706;2022-10-31T01:11:27;6.97;;;4.90;;
5622;SDS011;2833;50.432;10.706;2022-10-31T01:13:53;6.10;;;5.00;;
5622;SDS011;2833;50.432;10.706;2022-10-31T01:16:20;6.77;;;4.87;;
5622;SDS011;2833;50.432;10.706;2022-10-31T01:18:45;7.00;;;4.70;;
5622;SDS011;2833;50.432;10.706;2022-10-31T01:21:15;7.03;;;5.30;;
5622;SDS011;2833;50.432;10.706;2022-10-31T01:23:41;9.33;;;5.30;;
5622;SDS011;2833;50.432;10.706;2022-10-31T01:26:10;6.90;;;4.50;;
5622;SDS011;2833;50.432;10.706;2022-10-31T01:28:37;6.27;;;5.20;;
5622;SDS011;2833;50.432;10.706;2022-10-31T01:31:04;5.77;;;5.17;;
5622;SDS011;2833;50.432;10.706;2022-10-31T01:33:29;5.70;;;4.50;;
5622;SDS011;2833;50.432;10.706;2022-10-31T01:35:54;7.67;;;5.80;;
5622;SDS011;2833;50.432;10.706;2022-10-31T01:38:20;6.30;;;4.70;;
5622;SDS011;2833;50.432;10.706;2022-10-31T01:40:45;5.70;;;4.90;;
5622;SDS011;2833;50.432;10.706;2022-10-31T01:43:12;10.03;;;5.60;;
5622;SDS011;2833;50.432;10.706;2022-10-31T01:45:37;10.47;;;5.07;;
5622;SDS011;2833;50.432;10.706;2022-10-31T01:48:03;8.63;;;5.20;;
5622;SDS011;2833;50.432;10.706;2022-10-31T01:50:32;10.30;;;5.50;;
5622;SDS011;2833;50.432;10.706;2022-10-31T01:52:58;7.27;;;4.83;;
5622;SDS011;2833;50.432;10.706;2022-10-31T01:55:25;7.77;;;4.73;;
5622;SDS011;2833;50.432;10.706;2022-10-31T01:57:52;5.30;;;4.80;;
5622;SDS011;2833;50.432;10.706;2022-10-31T02:00:19;5.60;;;4.80;;
5622;SDS011;2833;50.432;10.706;2022-10-31T02:02:45;7.13;;;5.03;;
5622;SDS011;2833;50.432;10.706;2022-10-31T02:05:14;6.33;;;4.80;;
5622;SDS011;2833;50.432;10.706;2022-10-31T02:10:21;7.47;;;4.60;;
5622;SDS011;2833;50.432;10.706;2022-10-31T02:12:46;8.20;;;5.37;;
5622;SDS011;2833;50.432;10.706;2022-10-31T02:15:12;7.10;;;5.07;;
5622;SDS011;2833;50.432;10.706;2022-10-31T02:17:37;20.13;;;7.30;;
5622;SDS011;2833;50.432;10.706;2022-10-31T02:22:49;7.53;;;4.90;;
5622;SDS011;2833;50.432;10.706;2022-10-31T02:30:21;5.17;;;4.67;;
5622;SDS011;2833;50.432;10.706;2022-10-31T02:33:10;5.80;;;4.60;;
5622;SDS011;2833;50.432;10.706;2022-10-31T02:38:19;5.80;;;4.73;;
5622;SDS011;2833;50.432;10.706;2022-10-31T02:40:58;6.37;;;4.70;;
5622;SDS011;2833;50.432;10.706;2022-10-31T02:46:23;5.83;;;3.77;;
5622;SDS011;2833;50.432;10.706;2022-10-31T02:48:50;5.30;;;4.17;;
5622;SDS011;2833;50.432;10.706;2022-10-31T02:51:17;8.47;;;3.87;;
5622;SDS011;2833;50.432;10.706;2022-10-31T02:53:43;4.53;;;3.90;;
5622;SDS011;2833;50.432;10.706;2022-10-31T02:56:12;5.60;;;4.17;;
5622;SDS011;2833;50.432;10.706;2022-10-31T02:58:39;4.10;;;3.70;;
5622;SDS011;2833;50.432;10.706;2022-10-31T03:03:34;5.23;;;4.00;;
5622;SDS011;2833;50.432;10.706;2022-10-31T03:06:17;4.80;;;3.87;;
5622;SDS011;2833;50.432;10.706;2022-10-31T03:11:31;4.80;;;3.97;;
5622;SDS011;2833;50.432;10.706;2022-10-31T03:13:59;5.00;;;4.27;;
5622;SDS011;2833;50.432;10.706;2022-10-31T03:19:10;5.37;;;4.00;;
5622;SDS011;2833;50.432;10.706;2022-10-31T03:21:39;7.30;;;4.00;;
5622;SDS011;2833;50.432;10.706;2022-10-31T03:24:06;4.80;;;3.90;;
5622;SDS011;2833;50.432;10.706;2022-10-31T03:26:38;6.93;;;4.67;;
5622;SDS011;2833;50.432;10.706;2022-10-31T03:29:05;4.53;;;4.00;;
5622;SDS011;2833;50.432;10.706;2022-10-31T03:31:36;7.23;;;4.57;;
5622;SDS011;2833;50.432;10.706;2022-10-31T03:34:02;4.80;;;4.10;;
5622;SDS011;2833;50.432;10.706;2022-10-31T03:36:29;6.33;;;4.80;;
5622;SDS011;2833;50.432;10.706;2022-10-31T03:38:55;13.40;;;8.50;;
5622;SDS011;2833;50.432;10.706;2022-10-31T03:41:23;7.20;;;5.07;;
5622;SDS011;2833;50.432;10.706;2022-10-31T03:44:01;6.33;;;5.07;;
5622;SDS011;2833;50.432;10.706;2022-10-31T03:46:28;5.00;;;4.53;;
5622;SDS011;2833;50.432;10.706;2022-10-31T03:48:53;10.80;;;5.20;;
5622;SDS011;2833;50.432;10.706;2022-10-31T03:54:11;7.13;;;4.57;;
5622;SDS011;2833;50.432;10.706;2022-10-31T03:56:49;6.03;;;4.67;;
5622;SDS011;2833;50.432;10.706;2022-10-31T03:59:24;8.23;;;4.10;;
5622;SDS011;2833;50.432;10.706;2022-10-31T04:01:52;7.60;;;4.43;;
5622;SDS011;2833;50.432;10.706;2022-10-31T04:04:18;8.50;;;5.53;;
5622;SDS011;2833;50.432;10.706;2022-10-31T04:06:44;7.60;;;4.97;;
5622;SDS011;2833;50.432;10.706;2022-10-31T04:09:10;7.97;;;4.67;;
5622;SDS011;2833;50.432;10.706;2022-10-31T04:11:37;7.10;;;4.87;;
5622;SDS011;2833;50.432;10.706;2022-10-31T04:14:04;6.20;;;5.20;;
5622;SDS011;2833;50.432;10.706;2022-10-31T04:16:30;28.13;;;5.60;;
5622;SDS011;2833;50.432;10.706;2022-10-31T04:18:56;11.73;;;5.03;;
5622;SDS011;2833;50.432;10.706;2022-10-31T04:21:26;7.37;;;4.80;;
5622;SDS011;2833;50.432;10.706;2022-10-31T04:23:51;6.87;;;4.97;;
5622;SDS011;2833;50.432;10.706;2022-10-31T04:26:17;7.80;;;6.23;;
5622;SDS011;2833;50.432;10.706;2022-10-31T04:28:42;6.97;;;5.30;;
5622;SDS011;2833;50.432;10.706;2022-10-31T04:31:08;7.10;;;5.13;;
5622;SDS011;2833;50.432;10.706;2022-10-31T04:33:33;13.20;;;5.40;;
5622;SDS011;2833;50.432;10.706;2022-10-31T04:35:59;8.30;;;5.50;;
5622;SDS011;2833;50.432;10.706;2022-10-31T04:38:24;7.83;;;5.50;;
5622;SDS011;2833;50.432;10.706;2022-10-31T04:40:49;9.87;;;5.77;;
5622;SDS011;2833;50.432;10.706;2022-10-31T04:43:14;7.13;;;5.03;;
5622;SDS011;2833;50.432;10.706;2022-10-31T04:45:39;10.43;;;4.80;;
5622;SDS011;2833;50.432;10.706;2022-10-31T04:48:05;6.83;;;4.80;;
5622;SDS011;2833;50.432;10.706;2022-10-31T04:50:30;8.27;;;5.17;;
5622;SDS011;2833;50.432;10.706;2022-10-31T04:52:55;5.20;;;4.23;;
5622;SDS011;2833;50.432;10.706;2022-10-31T04:55:20;11.43;;;4.90;;
5622;SDS011;2833;50.432;10.706;2022-10-31T04:57:46;15.50;;;6.90;;
5622;SDS011;2833;50.432;10.706;2022-10-31T05:00:12;9.73;;;5.67;;
5622;SDS011;2833;50.432;10.706;2022-10-31T05:02:57;9.43;;;5.73;;
5622;SDS011;2833;50.432;10.706;2022-10-31T05:05:24;7.90;;;4.47;;
5622;SDS011;2833;50.432;10.706;2022-10-31T05:07:50;7.27;;;5.20;;
5622;SDS011;2833;50.432;10.706;2022-10-31T05:10:19;17.37;;;10.60;;
5622;SDS011;2833;50.432;10.706;2022-10-31T05:15:13;14.57;;;6.37;;
5622;SDS011;2833;50.432;10.706;2022-10-31T05:17:38;25.43;;;14.80;;
5622;SDS011;2833;50.432;10.706;2022-10-31T05:20:03;20.67;;;12.80;;
5622;SDS011;2833;50.432;10.706;2022-10-31T05:22:29;7.47;;;5.23;;
5622;SDS011;2833;50.432;10.706;2022-10-31T05:24:54;6.67;;;4.50;;
5622;SDS011;2833;50.432;10.706;2022-10-31T05:27:19;6.90;;;4.93;;
5622;SDS011;2833;50.432;10.706;2022-10-31T05:29:44;6.00;;;4.50;;
5622;SDS011;2833;50.432;10.706;2022-10-31T05:32:09;7.33;;;4.60;;
5622;SDS011;2833;50.432;10.706;2022-10-31T05:34:35;9.73;;;5.40;;
5622;SDS011;2833;50.432;10.706;2022-10-31T05:37:00;8.83;;;5.10;;
5622;SDS011;2833;50.432;10.706;2022-10-31T05:39:25;4.73;;;4.00;;
5622;SDS011;2833;50.432;10.706;2022-10-31T05:41:50;4.50;;;3.77;;
5622;SDS011;2833;50.432;10.706;2022-10-31T05:44:15;4.27;;;3.67;;
5622;SDS011;2833;50.432;10.706;2022-10-31T05:46:41;4.43;;;3.77;;
5622;SDS011;2833;50.432;10.706;2022-10-31T05:49:06;6.60;;;4.50;;
5622;SDS011;2833;50.432;10.706;2022-10-31T05:51:31;4.50;;;3.90;;
5622;SDS011;2833;50.432;10.706;2022-10-31T05:53:56;5.23;;;3.97;;
5622;SDS011;2833;50.432;10.706;2022-10-31T05:56:21;7.63;;;5.53;;
5622;SDS011;2833;50.432;10.706;2022-10-31T05:58:47;6.40;;;4.77;;
5622;SDS011;2833;50.432;10.706;2022-10-31T06:01:12;6.47;;;4.87;;
5622;SDS011;2833;50.432;10.706;2022-10-31T06:03:37;7.43;;;4.50;;
5622;SDS011;2833;50.432;10.706;2022-10-31T06:06:02;7.13;;;4.90;;
5622;SDS011;2833;50.432;10.706;2022-10-31T06:08:27;6.13;;;4.30;;
5622;SDS011;2833;50.432;10.706;2022-10-31T06:10:53;5.40;;;4.20;;
5622;SDS011;2833;50.432;10.706;2022-10-31T06:13:18;6.20;;;4.70;;
5622;SDS011;2833;50.432;10.706;2022-10-31T06:15:44;8.70;;;5.17;;
5622;SDS011;2833;50.432;10.706;2022-10-31T06:18:09;6.97;;;4.60;;
5622;SDS011;2833;50.432;10.706;2022-10-31T06:20:34;6.87;;;4.90;;
5622;SDS011;2833;50.432;10.706;2022-10-31T06:23:00;7.50;;;5.00;;
5622;SDS011;2833;50.432;10.706;2022-10-31T06:25:25;8.27;;;4.27;;
5622;SDS011;2833;50.432;10.706;2022-10-31T06:27:50;7.80;;;5.27;;
5622;SDS011;2833;50.432;10.706;2022-10-31T06:30:15;7.90;;;6.00;;
5622;SDS011;2833;50.432;10.706;2022-10-31T06:32:41;8.17;;;5.60;;
5622;SDS011;2833;50.432;10.706;2022-10-31T06:35:06;8.73;;;6.40;;
5622;SDS011;2833;50.432;10.706;2022-10-31T06:37:31;10.13;;;6.07;;
5622;SDS011;2833;50.432;10.706;2022-10-31T06:39:56;13.13;;;7.23;;
5622;SDS011;2833;50.432;10.706;2022-10-31T06:42:22;10.40;;;6.50;;
5622;SDS011;2833;50.432;10.706;2022-10-31T06:44:49;9.37;;;7.37;;
5622;SDS011;2833;50.432;10.706;2022-10-31T06:47:14;14.70;;;7.53;;
5622;SDS011;2833;50.432;10.706;2022-10-31T06:49:39;10.63;;;7.67;;
5622;SDS011;2833;50.432;10.706;2022-10-31T06:52:04;6.50;;;5.80;;
5622;SDS011;2833;50.432;10.706;2022-10-31T06:54:30;6.57;;;5.07;;
5622;SDS011;2833;50.432;10.706;2022-10-31T06:56:55;8.27;;;5.10;;
5622;SDS011;2833;50.432;10.706;2022-10-31T06:59:20;7.93;;;5.87;;
5622;SDS011;2833;50.432;10.706;2022-10-31T07:01:46;7.30;;;6.10;;
5622;SDS011;2833;50.432;10.706;2022-10-31T07:04:11;8.37;;;6.93;;
5622;SDS011;2833;50.432;10.706;2022-10-31T07:06:36;8.40;;;6.20;;
5622;SDS011;2833;50.432;10.706;2022-10-31T07:09:01;6.60;;;5.87;;
5622;SDS011;2833;50.432;10.706;2022-10-31T07:11:27;8.87;;;6.00;;
5622;SDS011;2833;50.432;10.706;2022-10-31T07:13:52;8.40;;;6.10;;
5622;SDS011;2833;50.432;10.706;2022-10-31T07:16:17;8.40;;;6.10;;
5622;SDS011;2833;50.432;10.706;2022-10-31T07:18:42;8.40;;;5.70;;
5622;SDS011;2833;50.432;10.706;2022-10-31T07:21:07;6.63;;;5.73;;
5622;SDS011;2833;50.432;10.706;2022-10-31T07:23:33;12.10;;;7.50;;
5622;SDS011;2833;50.432;10.706;2022-10-31T07:25:58;10.80;;;8.20;;
5622;SDS011;2833;50.432;10.706;2022-10-31T07:28:24;12.67;;;9.67;;
5622;SDS011;2833;50.432;10.706;2022-10-31T07:30:50;15.37;;;9.97;;
5622;SDS011;2833;50.432;10.706;2022-10-31T07:33:16;11.40;;;9.30;;
5622;SDS011;2833;50.432;10.706;2022-10-31T07:35:41;7.97;;;6.30;;
5622;SDS011;2833;50.432;10.706;2022-10-31T07:38:07;5.83;;;5.23;;
5622;SDS011;2833;50.432;10.706;2022-10-31T07:40:33;5.87;;;4.80;;
5622;SDS011;2833;50.432;10.706;2022-10-31T07:42:58;4.97;;;4.33;;
5622;SDS011;2833;50.432;10.706;2022-10-31T07:45:23;3.70;;;3.40;;
5622;SDS011;2833;50.432;10.706;2022-10-31T07:47:49;4.30;;;3.90;;
5622;SDS011;2833;50.432;10.706;2022-10-31T07:50:16;6.43;;;3.83;;
5622;SDS011;2833;50.432;10.706;2022-10-31T07:52:41;8.43;;;5.10;;
5622;SDS011;2833;50.432;10.706;2022-10-31T07:55:07;4.90;;;4.40;;
5622;SDS011;2833;50.432;10.706;2022-10-31T07:57:32;8.80;;;4.50;;
5622;SDS011;2833;50.432;10.706;2022-10-31T07:59:58;6.13;;;4.60;;
5622;SDS011;2833;50.432;10.706;2022-10-31T08:02:23;9.67;;;4.50;;
5622;SDS011;2833;50.432;10.706;2022-10-31T08:04:49;8.10;;;5.30;;
5622;SDS011;2833;50.432;10.706;2022-10-31T08:07:14;9.30;;;6.10;;
5622;SDS011;2833;50.432;10.706;2022-10-31T08:09:39;16.13;;;7.10;;
5622;SDS011;2833;50.432;10.706;2022-10-31T08:12:04;11.27;;;7.70;;
5622;SDS011;2833;50.432;10.706;2022-10-31T08:14:30;10.13;;;6.03;;
5622;SDS011;2833;50.432;10.706;2022-10-31T08:16:55;17.17;;;10.73;;
5622;SDS011;2833;50.432;10.706;2022-10-31T08:19:20;14.30;;;10.23;;
5622;SDS011;2833;50.432;10.706;2022-10-31T08:21:45;21.57;;;15.17;;
5622;SDS011;2833;50.432;10.706;2022-10-31T08:24:10;16.40;;;10.47;;
5622;SDS011;2833;50.432;10.706;2022-10-31T08:26:36;15.37;;;11.53;;
5622;SDS011;2833;50.432;10.706;2022-10-31T08:29:01;14.60;;;9.73;;
5622;SDS011;2833;50.432;10.706;2022-10-31T08:31:27;10.70;;;7.67;;
5622;SDS011;2833;50.432;10.706;2022-10-31T08:33:52;16.77;;;7.57;;
5622;SDS011;2833;50.432;10.706;2022-10-31T08:36:18;10.00;;;6.20;;
5622;SDS011;2833;50.432;10.706;2022-10-31T08:38:43;11.00;;;6.30;;
5622;SDS011;2833;50.432;10.706;2022-10-31T08:41:08;9.17;;;5.50;;
5622;SDS011;2833;50.432;10.706;2022-10-31T08:43:34;18.70;;;5.97;;
5622;SDS011;2833;50.432;10.706;2022-10-31T08:45:59;25.03;;;6.07;;
5622;SDS011;2833;50.432;10.706;2022-10-31T08:48:24;13.57;;;7.20;;
5622;SDS011;2833;50.432;10.706;2022-10-31T08:50:50;10.67;;;6.70;;
5622;SDS011;2833;50.432;10.706;2022-10-31T08:53:16;10.43;;;7.03;;
5622;SDS011;2833;50.432;10.706;2022-10-31T08:55:43;8.13;;;6.07;;
5622;SDS011;2833;50.432;10.706;2022-10-31T08:58:12;10.70;;;6.77;;
5622;SDS011;2833;50.432;10.706;2022-10-31T09:00:37;14.30;;;9.47;;
5622;SDS011;2833;50.432;10.706;2022-10-31T09:03:04;8.93;;;6.93;;
5622;SDS011;2833;50.432;10.706;2022-10-31T09:05:29;10.57;;;6.83;;
5622;SDS011;2833;50.432;10.706;2022-10-31T09:07:55;9.53;;;6.27;;
5622;SDS011;2833;50.432;10.706;2022-10-31T09:10:21;9.37;;;6.60;;
5622;SDS011;2833;50.432;10.706;2022-10-31T09:12:46;9.27;;;6.50;;
5622;SDS011;2833;50.432;10.706;2022-10-31T09:15:11;8.03;;;6.40;;
5622;SDS011;2833;50.432;10.706;2022-10-31T09:17:36;7.70;;;5.60;;
5622;SDS011;2833;50.432;10.706;2022-10-31T09:20:02;9.80;;;5.57;;
5622;SDS011;2833;50.432;10.706;2022-10-31T09:22:27;10.87;;;6.07;;
5622;SDS011;2833;50.432;10.706;2022-10-31T09:24:52;8.10;;;5.87;;
5622;SDS011;2833;50.432;10.706;2022-10-31T09:27:17;16.30;;;6.97;;
5622;SDS011;2833;50.432;10.706;2022-10-31T09:29:42;8.23;;;6.10;;
5622;SDS011;2833;50.432;10.706;2022-10-31T09:32:08;12.23;;;6.93;;
5622;SDS011;2833;50.432;10.706;2022-10-31T09:34:33;11.47;;;7.70;;
5622;SDS011;2833;50.432;10.706;2022-10-31T09:36:58;8.53;;;6.33;;
5622;SDS011;2833;50.432;10.706;2022-10-31T09:39:23;13.33;;;6.93;;
5622;SDS011;2833;50.432;10.706;2022-10-31T09:42:04;13.40;;;6.53;;
5622;SDS011;2833;50.432;10.706;2022-10-31T09:44:48;10.40;;;7.10;;
5622;SDS011;2833;50.432;10.706;2022-10-31T09:50:12;10.17;;;6.70;;
5622;SDS011;2833;50.432;10.706;2022-10-31T09:52:39;10.33;;;6.57;;
5622;SDS011;2833;50.432;10.706;2022-10-31T09:55:18;12.43;;;7.37;;
5622;SDS011;2833;50.432;10.706;2022-10-31T09:57:44;13.73;;;7.17;;
5622;SDS011;2833;50.432;10.706;2022-10-31T10:00:20;11.30;;;6.90;;
5622;SDS011;2833;50.432;10.706;2022-10-31T10:02:51;11.17;;;7.87;;
5622;SDS011;2833;50.432;10.706;2022-10-31T10:05:18;10.87;;;7.30;;
5622;SDS011;2833;50.432;10.706;2022-10-31T10:08:01;12.73;;;7.67;;
5622;SDS011;2833;50.432;10.706;2022-10-31T10:10:35;9.97;;;6.90;;
5622;SDS011;2833;50.432;10.706;2022-10-31T10:25:53;14.20;;;9.13;;
5622;SDS011;2833;50.432;10.706;2022-10-31T10:28:32;11.80;;;7.93;;
5622;SDS011;2833;50.432;10.706;2022-10-31T10:31:22;12.77;;;7.60;;
5622;SDS011;2833;50.432;10.706;2022-10-31T10:34:11;12.17;;;7.10;;
5622;SDS011;2833;50.432;10.706;2022-10-31T10:36:37;11.10;;;8.00;;
5622;SDS011;2833;50.432;10.706;2022-10-31T10:39:07;13.50;;;8.20;;
5622;SDS011;2833;50.432;10.706;2022-10-31T10:41:35;16.33;;;8.23;;
5622;SDS011;2833;50.432;10.706;2022-10-31T10:44:01;11.17;;;7.87;;
5622;SDS011;2833;50.432;10.706;2022-10-31T10:46:34;15.90;;;10.00;;
5622;SDS011;2833;50.432;10.706;2022-10-31T10:49:35;22.60;;;10.17;;
5622;SDS011;2833;50.432;10.706;2022-10-31T10:52:08;14.30;;;9.13;;
5622;SDS011;2833;50.432;10.706;2022-10-31T10:59:33;14.90;;;10.10;;
5622;SDS011;2833;50.432;10.706;2022-10-31T11:01:59;15.50;;;10.93;;
5622;SDS011;2833;50.432;10.706;2022-10-31T11:04:34;26.30;;;11.23;;
5622;SDS011;2833;50.432;10.706;2022-10-31T11:07:10;19.47;;;12.30;;
5622;SDS011;2833;50.432;10.706;2022-10-31T11:09:36;19.90;;;11.97;;
5622;SDS011;2833;50.432;10.706;2022-10-31T11:12:09;24.73;;;12.73;;
5622;SDS011;2833;50.432;10.706;2022-10-31T11:14:36;23.30;;;11.33;;
5622;SDS011;2833;50.432;10.706;2022-10-31T11:19:46;20.07;;;12.10;;
5622;SDS011;2833;50.432;10.706;2022-10-31T11:22:15;22.63;;;13.40;;
5622;SDS011;2833;50.432;10.706;2022-10-31T11:24:41;24.60;;;13.03;;
5622;SDS011;2833;50.432;10.706;2022-10-31T11:27:23;21.13;;;11.77;;
5622;SDS011;2833;50.432;10.706;2022-10-31T11:29:51;24.80;;;12.70;;
5622;SDS011;2833;50.432;10.706;2022-10-31T11:32:26;24.53;;;12.73;;
5622;SDS011;2833;50.432;10.706;2022-10-31T11:34:56;27.80;;;12.47;;
5622;SDS011;2833;50.432;10.706;2022-10-31T11:37:24;20.57;;;12.70;;
5622;SDS011;2833;50.432;10.706;2022-10-31T11:39:54;24.83;;;13.27;;
5622;SDS011;2833;50.432;10.706;2022-10-31T11:42:20;24.93;;;12.87;;
5622;SDS011;2833;50.432;10.706;2022-10-31T11:44:47;26.13;;;13.33;;
5622;SDS011;2833;50.432;10.706;2022-10-31T11:47:14;23.93;;;14.50;;
5622;SDS011;2833;50.432;10.706;2022-10-31T11:49:43;24.80;;;12.53;;
5622;SDS011;2833;50.432;10.706;2022-10-31T11:52:14;26.17;;;12.07;;
5622;SDS011;2833;50.432;10.706;2022-10-31T11:54:47;22.23;;;12.07;;
5622;SDS011;2833;50.432;10.706;2022-10-31T11:57:24;22.70;;;10.50;;
5622;SDS011;2833;50.432;10.706;2022-10-31T11:59:53;20.50;;;10.60;;
5622;SDS011;2833;50.432;10.706;2022-10-31T12:02:19;16.60;;;9.77;;
5622;SDS011;2833;50.432;10.706;2022-10-31T12:04:46;17.57;;;9.37;;
5622;SDS011;2833;50.432;10.706;2022-10-31T12:07:12;17.40;;;10.40;;
5622;SDS011;2833;50.432;10.706;2022-10-31T12:09:37;23.13;;;10.03;;
5622;SDS011;2833;50.432;10.706;2022-10-31T12:22:08;19.57;;;10.13;;
5622;SDS011;2833;50.432;10.706;2022-10-31T12:24:38;14.80;;;9.10;;
5622;SDS011;2833;50.432;10.706;2022-10-31T12:27:28;17.70;;;9.63;;
5622;SDS011;2833;50.432;10.706;2022-10-31T12:43:03;16.20;;;9.40;;
5622;SDS011;2833;50.432;10.706;2022-10-31T12:45:41;13.30;;;8.23;;
5622;SDS011;2833;50.432;10.706;2022-10-31T12:53:32;15.60;;;9.43;;
5622;SDS011;2833;50.432;10.706;2022-10-31T12:58:35;20.27;;;10.37;;
5622;SDS011;2833;50.432;10.706;2022-10-31T13:03:32;16.60;;;9.20;;
5622;SDS011;2833;50.432;10.706;2022-10-31T13:05:58;18.30;;;8.50;;
5622;SDS011;2833;50.432;10.706;2022-10-31T13:08:33;13.30;;;7.07;;
5622;SDS011;2833;50.432;10.706;2022-10-31T13:21:08;14.73;;;7.30;;
5622;SDS011;2833;50.432;10.706;2022-10-31T13:23:35;14.77;;;7.27;;
5622;SDS011;2833;50.432;10.706;2022-10-31T13:26:05;10.87;;;7.23;;
5622;SDS011;2833;50.432;10.706;2022-10-31T13:28:48;11.87;;;7.33;;
5622;SDS011;2833;50.432;10.706;2022-10-31T13:31:16;13.80;;;7.20;;
5622;SDS011;2833;50.432;10.706;2022-10-31T13:33:49;12.20;;;6.63;;
5622;SDS011;2833;50.432;10.706;2022-10-31T13:36:31;21.33;;;7.83;;
5622;SDS011;2833;50.432;10.706;2022-10-31T13:41:48;14.10;;;7.07;;
5622;SDS011;2833;50.432;10.706;2022-10-31T13:44:15;16.97;;;7.50;;
5622;SDS011;2833;50.432;10.706;2022-10-31T13:46:42;13.53;;;7.00;;
5622;SDS011;2833;50.432;10.706;2022-10-31T13:51:52;16.47;;;8.23;;
5622;SDS011;2833;50.432;10.706;2022-10-31T13:54:32;11.97;;;7.10;;
5622;SDS011;2833;50.432;10.706;2022-10-31T13:56:57;11.77;;;7.37;;
5622;SDS011;2833;50.432;10.706;2022-10-31T13:59:23;18.20;;;7.57;;
5622;SDS011;2833;50.432;10.706;2022-10-31T14:01:50;12.50;;;7.43;;
5622;SDS011;2833;50.432;10.706;2022-10-31T14:04:17;12.77;;;7.93;;
5622;SDS011;2833;50.432;10.706;2022-10-31T14:10:19;12.07;;;7.20;;
5622;SDS011;2833;50.432;10.706;2022-10-31T14:12:11;12.77;;;7.53;;
5622;SDS011;2833;50.432;10.706;2022-10-31T14:14:45;11.60;;;7.37;;
5622;SDS011;2833;50.432;10.706;2022-10-31T14:17:17;11.83;;;7.57;;
5622;SDS011;2833;50.432;10.706;2022-10-31T14:19:43;13.47;;;8.47;;
5622;SDS011;2833;50.432;10.706;2022-10-31T14:22:20;16.80;;;8.27;;
5622;SDS011;2833;50.432;10.706;2022-10-31T14:24:46;24.33;;;9.43;;
5622;SDS011;2833;50.432;10.706;2022-10-31T14:29:49;12.30;;;7.97;;
5622;SDS011;2833;50.432;10.706;2022-10-31T14:34:43;16.00;;;8.93;;
5622;SDS011;2833;50.432;10.706;2022-10-31T14:37:24;16.17;;;8.80;;
5622;SDS011;2833;50.432;10.706;2022-10-31T14:42:29;13.67;;;7.90;;
5622;SDS011;2833;50.432;10.706;2022-10-31T14:45:05;24.10;;;12.50;;
5622;SDS011;2833;50.432;10.706;2022-10-31T14:52:50;15.60;;;8.23;;
5622;SDS011;2833;50.432;10.706;2022-10-31T14:55:17;15.40;;;7.80;;
5622;SDS011;2833;50.432;10.706;2022-10-31T14:57:48;10.07;;;6.67;;
5622;SDS011;2833;50.432;10.706;2022-10-31T15:00:18;16.80;;;8.53;;
5622;SDS011;2833;50.432;10.706;2022-10-31T15:05:32;16.50;;;8.67;;
5622;SDS011;2833;50.432;10.706;2022-10-31T15:07:59;14.73;;;7.77;;
5622;SDS011;2833;50.432;10.706;2022-10-31T15:10:25;13.43;;;8.63;;
5622;SDS011;2833;50.432;10.706;2022-10-31T15:12:51;13.70;;;7.90;;
5622;SDS011;2833;50.432;10.706;2022-10-31T15:15:20;19.87;;;7.40;;
5622;SDS011;2833;50.432;10.706;2022-10-31T15:17:48;12.80;;;7.00;;
5622;SDS011;2833;50.432;10.706;2022-10-31T15:20:19;17.40;;;8.53;;
5622;SDS011;2833;50.432;10.706;2022-10-31T15:22:45;17.40;;;6.97;;
5622;SDS011;2833;50.432;10.706;2022-10-31T15:25:17;12.73;;;7.20;;
5622;SDS011;2833;50.432;10.706;2022-10-31T15:27:43;31.67;;;17.47;;
5622;SDS011;2833;50.432;10.706;2022-10-31T15:30:18;20.53;;;13.10;;
5622;SDS011;2833;50.432;10.706;2022-10-31T15:32:44;44.13;;;20.23;;
5622;SDS011;2833;50.432;10.706;2022-10-31T15:35:10;50.37;;;29.77;;
5622;SDS011;2833;50.432;10.706;2022-10-31T15:37:35;35.10;;;20.90;;
5622;SDS011;2833;50.432;10.706;2022-10-31T15:40:06;54.97;;;30.67;;
5622;SDS011;2833;50.432;10.706;2022-10-31T15:42:35;34.03;;;21.70;;
5622;SDS011;2833;50.432;10.706;2022-10-31T15:45:12;16.63;;;11.17;;
5622;SDS011;2833;50.432;10.706;2022-10-31T15:47:49;23.10;;;14.40;;
5622;SDS011;2833;50.432;10.706;2022-10-31T15:50:19;17.27;;;10.00;;
5622;SDS011;2833;50.432;10.706;2022-10-31T15:52:46;12.87;;;8.37;;
5622;SDS011;2833;50.432;10.706;2022-10-31T15:55:27;19.03;;;9.77;;
5622;SDS011;2833;50.432;10.706;2022-10-31T15:57:57;42.70;;;22.93;;
5622;SDS011;2833;50.432;10.706;2022-10-31T16:02:49;16.33;;;11.30;;
5622;SDS011;2833;50.432;10.706;2022-10-31T16:05:15;11.00;;;7.77;;
5622;SDS011;2833;50.432;10.706;2022-10-31T16:07:47;18.07;;;7.90;;
5622;SDS011;2833;50.432;10.706;2022-10-31T16:10:23;13.37;;;7.80;;
5622;SDS011;2833;50.432;10.706;2022-10-31T16:12:49;11.07;;;6.80;;
5622;SDS011;2833;50.432;10.706;2022-10-31T16:15:15;18.00;;;9.80;;
5622;SDS011;2833;50.432;10.706;2022-10-31T16:17:41;17.70;;;8.97;;
5622;SDS011;2833;50.432;10.706;2022-10-31T16:20:16;19.43;;;12.57;;
5622;SDS011;2833;50.432;10.706;2022-10-31T16:22:46;20.83;;;10.60;;
5622;SDS011;2833;50.432;10.706;2022-10-31T16:25:13;24.90;;;10.20;;
5622;SDS011;2833;50.432;10.706;2022-10-31T16:27:40;12.27;;;8.07;;
5622;SDS011;2833;50.432;10.706;2022-10-31T16:32:56;13.03;;;8.50;;
5622;SDS011;2833;50.432;10.706;2022-10-31T16:35:36;15.10;;;8.20;;
5622;SDS011;2833;50.432;10.706;2022-10-31T16:38:02;11.63;;;8.33;;
5622;SDS011;2833;50.432;10.706;2022-10-31T16:40:27;13.07;;;9.50;;
5622;SDS011;2833;50.432;10.706;2022-10-31T16:42:53;19.30;;;10.97;;
5622;SDS011;2833;50.432;10.706;2022-10-31T16:45:25;16.33;;;10.23;;
5622;SDS011;2833;50.432;10.706;2022-10-31T16:47:50;21.40;;;10.53;;
5622;SDS011;2833;50.432;10.706;2022-10-31T16:50:20;16.10;;;10.70;;
5622;SDS011;2833;50.432;10.706;2022-10-31T16:52:46;28.00;;;16.10;;
5622;SDS011;2833;50.432;10.706;2022-10-31T16:55:15;33.70;;;16.20;;
5622;SDS011;2833;50.432;10.706;2022-10-31T16:57:41;27.10;;;14.67;;
5622;SDS011;2833;50.432;10.706;2022-10-31T17:00:08;17.63;;;11.90;;